sensor_id;sensor_type;location;lat;lon;timestamp;temperature;humidity
47540;DHT22;33280;52.152;21.052;2023-04-03T00:01:01;2.30;99.90
47540;DHT22;33280;52.152;21.052;2023-04-03T00:03:29;2.30;99.90
47540;DHT22;33280;52.152;21.052;2023-04-03T00:05:56;2.20;99.90
47540;DHT22;33280;52.152;21.052;2023-04-03T00:08:23;2.10;99.90
47540;DHT22;33280;52.152;21.052;2023-04-03T00:10:49;2.10;99.90
47540;DHT22;33280;52.152;21.052;2023-04-03T00:13:17;2.10;99.90
47540;DHT22;33280;52.152;21.052;2023-04-03T00:15:44;2.00;99.90
47540;DHT22;33280;52.152;21.052;2023-04-03T00:18:11;1.90;99.90
47540;DHT22;33280;52.152;21.052;2023-04-03T00:20:38;1.90;99.90
47540;DHT22;33280;52.152;21.052;2023-04-03T00:23:05;1.90;99.90
47540;DHT22;33280;52.152;21.052;2023-04-03T00:25:33;1.80;99.90
47540;DHT22;33280;52.152;21.052;2023-04-03T00:28:00;1.80;99.90
47540;DHT22;33280;52.152;21.052;2023-04-03T00:30:27;1.70;99.90
47540;DHT22;33280;52.152;21.052;2023-04-03T00:32:54;1.70;99.90
47540;DHT22;33280;52.152;21.052;2023-04-03T00:35:22;1.70;99.90
47540;DHT22;33280;52.152;21.052;2023-04-03T00:37:54;1.70;99.90
47540;DHT22;33280;52.152;21.052;2023-04-03T00:40:23;1.60;99.90
47540;DHT22;33280;52.152;21.052;2023-04-03T00:42:56;1.50;99.90
47540;DHT22;33280;52.152;21.052;2023-04-03T00:45:28;1.70;99.90
47540;DHT22;33280;52.152;21.052;2023-04-03T00:47:56;1.60;99.90
47540;DHT22;33280;52.152;21.052;2023-04-03T00:50:23;1.50;99.90
47540;DHT22;33280;52.152;21.052;2023-04-03T00:52:51;1.50;99.90
47540;DHT22;33280;52.152;21.052;2023-04-03T00:55:18;1.40;99.90
47540;DHT22;33280;52.152;21.052;2023-04-03T00:57:46;1.40;99.90
47540;DHT22;33280;52.152;21.052;2023-04-03T01:00:16;1.40;99.90
47540;DHT22;33280;52.152;21.052;2023-04-03T01:02:45;1.30;99.90
47540;DHT22;33280;52.152;21.052;2023-04-03T01:05:13;1.30;99.90
47540;DHT22;33280;52.152;21.052;2023-04-03T01:07:43;1.30;99.90
47540;DHT22;33280;52.152;21.052;2023-04-03T01:10:15;1.30;99.90
47540;DHT22;33280;52.152;21.052;2023-04-03T01:12:47;1.20;99.90
47540;DHT22;33280;52.152;21.052;2023-04-03T01:15:21;1.10;99.90
47540;DHT22;33280;52.152;21.052;2023-04-03T01:17:56;1.10;99.90
47540;DHT22;33280;52.152;21.052;2023-04-03T01:25:57;1.10;99.90
47540;DHT22;33280;52.152;21.052;2023-04-03T01:28:32;1.00;99.90
47540;DHT22;33280;52.152;21.052;2023-04-03T01:31:31;1.00;99.90
47540;DHT22;33280;52.152;21.052;2023-04-03T01:34:02;1.00;99.90
47540;DHT22;33280;52.152;21.052;2023-04-03T01:36:31;0.90;99.90
47540;DHT22;33280;52.152;21.052;2023-04-03T01:38:59;0.90;99.90
47540;DHT22;33280;52.152;21.052;2023-04-03T01:41:27;0.90;99.90
47540;DHT22;33280;52.152;21.052;2023-04-03T01:43:54;0.90;99.90
47540;DHT22;33280;52.152;21.052;2023-04-03T01:46:22;0.90;99.90
47540;DHT22;33280;52.152;21.052;2023-04-03T01:48:49;0.80;99.90
47540;DHT22;33280;52.152;21.052;2023-04-03T01:51:16;0.70;99.90
47540;DHT22;33280;52.152;21.052;2023-04-03T01:53:43;0.70;99.90
47540;DHT22;33280;52.152;21.052;2023-04-03T01:56:09;0.70;99.90
47540;DHT22;33280;52.152;21.052;2023-04-03T01:58:36;0.70;99.90
47540;DHT22;33280;52.152;21.052;2023-04-03T02:01:03;0.60;99.90
47540;DHT22;33280;52.152;21.052;2023-04-03T02:03:30;0.60;99.90
47540;DHT22;33280;52.152;21.052;2023-04-03T02:05:57;0.60;99.90
47540;DHT22;33280;52.152;21.052;2023-04-03T02:08:24;0.60;99.90
47540;DHT22;33280;52.152;21.052;2023-04-03T02:10:52;0.50;99.90
47540;DHT22;33280;52.152;21.052;2023-04-03T02:13:19;0.60;99.90
47540;DHT22;33280;52.152;21.052;2023-04-03T02:15:46;0.50;99.90
47540;DHT22;33280;52.152;21.052;2023-04-03T02:18:15;0.50;99.90
47540;DHT22;33280;52.152;21.052;2023-04-03T02:20:42;0.50;99.90
47540;DHT22;33280;52.152;21.052;2023-04-03T02:23:09;0.50;99.90
47540;DHT22;33280;52.152;21.052;2023-04-03T02:25:36;0.40;99.90
47540;DHT22;33280;52.152;21.052;2023-04-03T02:28:05;0.50;99.90
47540;DHT22;33280;52.152;21.052;2023-04-03T02:30:34;0.40;99.90
47540;DHT22;33280;52.152;21.052;2023-04-03T02:33:01;0.30;99.90
47540;DHT22;33280;52.152;21.052;2023-04-03T02:35:28;0.30;99.90
47540;DHT22;33280;52.152;21.052;2023-04-03T02:37:56;0.30;99.90
47540;DHT22;33280;52.152;21.052;2023-04-03T02:40:23;0.30;99.90
47540;DHT22;33280;52.152;21.052;2023-04-03T02:42:50;0.20;99.90
47540;DHT22;33280;52.152;21.052;2023-04-03T02:45:17;0.20;99.90
47540;DHT22;33280;52.152;21.052;2023-04-03T02:47:43;0.20;99.90
47540;DHT22;33280;52.152;21.052;2023-04-03T02:50:10;0.20;99.90
47540;DHT22;33280;52.152;21.052;2023-04-03T02:52:37;0.10;99.90
47540;DHT22;33280;52.152;21.052;2023-04-03T02:55:06;0.10;99.90
47540;DHT22;33280;52.152;21.052;2023-04-03T02:57:33;0.10;99.90
47540;DHT22;33280;52.152;21.052;2023-04-03T03:00:00;0.10;99.90
47540;DHT22;33280;52.152;21.052;2023-04-03T03:02:27;0.00;99.90
47540;DHT22;33280;52.152;21.052;2023-04-03T03:04:54;0.00;99.90
47540;DHT22;33280;52.152;21.052;2023-04-03T03:07:21;0.00;99.90
47540;DHT22;33280;52.152;21.052;2023-04-03T03:09:47;0.00;99.90
47540;DHT22;33280;52.152;21.052;2023-04-03T03:12:14;0.00;99.90
47540;DHT22;33280;52.152;21.052;2023-04-03T03:14:41;-0.10;99.90
47540;DHT22;33280;52.152;21.052;2023-04-03T03:17:09;-0.10;99.90
47540;DHT22;33280;52.152;21.052;2023-04-03T03:19:36;-0.20;99.90
47540;DHT22;33280;52.152;21.052;2023-04-03T03:22:03;-0.10;99.90
47540;DHT22;33280;52.152;21.052;2023-04-03T03:24:30;-0.10;99.90
47540;DHT22;33280;52.152;21.052;2023-04-03T03:26:57;-0.20;99.90
47540;DHT22;33280;52.152;21.052;2023-04-03T03:29:24;-0.20;99.90
47540;DHT22;33280;52.152;21.052;2023-04-03T03:31:51;-0.20;99.90
47540;DHT22;33280;52.152;21.052;2023-04-03T03:34:18;-0.20;99.90
47540;DHT22;33280;52.152;21.052;2023-04-03T03:36:45;-0.20;99.90
47540;DHT22;33280;52.152;21.052;2023-04-03T03:39:12;-0.20;99.90
47540;DHT22;33280;52.152;21.052;2023-04-03T03:41:39;-0.20;99.90
47540;DHT22;33280;52.152;21.052;2023-04-03T03:44:06;-0.20;99.90
47540;DHT22;33280;52.152;21.052;2023-04-03T03:46:33;-0.30;99.90
47540;DHT22;33280;52.152;21.052;2023-04-03T03:48:59;-0.30;99.90
47540;DHT22;33280;52.152;21.052;2023-04-03T03:51:26;-0.30;99.90
47540;DHT22;33280;52.152;21.052;2023-04-03T03:53:53;-0.40;99.90
47540;DHT22;33280;52.152;21.052;2023-04-03T03:56:21;-0.40;99.90
47540;DHT22;33280;52.152;21.052;2023-04-03T03:58:48;-0.40;99.90
47540;DHT22;33280;52.152;21.052;2023-04-03T04:01:17;-0.40;99.90
47540;DHT22;33280;52.152;21.052;2023-04-03T04:03:45;-0.50;99.90
47540;DHT22;33280;52.152;21.052;2023-04-03T04:06:12;-0.50;99.90
47540;DHT22;33280;52.152;21.052;2023-04-03T04:08:39;-0.50;99.90
47540;DHT22;33280;52.152;21.052;2023-04-03T04:11:07;-0.50;99.90
47540;DHT22;33280;52.152;21.052;2023-04-03T04:13:36;-0.60;99.90
47540;DHT22;33280;52.152;21.052;2023-04-03T04:16:03;-0.50;99.90
47540;DHT22;33280;52.152;21.052;2023-04-03T04:18:30;-0.50;99.90
47540;DHT22;33280;52.152;21.052;2023-04-03T04:20:57;-0.50;99.90
47540;DHT22;33280;52.152;21.052;2023-04-03T04:23:26;-0.50;99.90
47540;DHT22;33280;52.152;21.052;2023-04-03T04:25:56;-0.50;99.90
47540;DHT22;33280;52.152;21.052;2023-04-03T04:28:23;-0.50;99.90
47540;DHT22;33280;52.152;21.052;2023-04-03T04:30:51;-0.50;99.90
47540;DHT22;33280;52.152;21.052;2023-04-03T04:33:18;-0.60;99.90
47540;DHT22;33280;52.152;21.052;2023-04-03T04:35:48;-0.60;99.90
47540;DHT22;33280;52.152;21.052;2023-04-03T04:38:16;-0.60;99.90
47540;DHT22;33280;52.152;21.052;2023-04-03T04:40:43;-0.60;99.90
47540;DHT22;33280;52.152;21.052;2023-04-03T04:43:10;-0.60;99.90
47540;DHT22;33280;52.152;21.052;2023-04-03T04:45:41;-0.60;99.90
47540;DHT22;33280;52.152;21.052;2023-04-03T04:48:08;-0.60;99.90
47540;DHT22;33280;52.152;21.052;2023-04-03T04:50:49;-0.60;99.90
47540;DHT22;33280;52.152;21.052;2023-04-03T04:53:17;-0.50;99.90
47540;DHT22;33280;52.152;21.052;2023-04-03T04:55:45;-0.60;99.90
47540;DHT22;33280;52.152;21.052;2023-04-03T04:58:12;-0.50;99.90
47540;DHT22;33280;52.152;21.052;2023-04-03T05:00:38;-0.50;99.90
47540;DHT22;33280;52.152;21.052;2023-04-03T05:03:06;-0.60;99.90
47540;DHT22;33280;52.152;21.052;2023-04-03T05:05:33;-0.60;99.90
47540;DHT22;33280;52.152;21.052;2023-04-03T05:08:01;-0.60;99.90
47540;DHT22;33280;52.152;21.052;2023-04-03T05:10:29;-0.60;99.90
47540;DHT22;33280;52.152;21.052;2023-04-03T05:12:57;-0.60;99.90
47540;DHT22;33280;52.152;21.052;2023-04-03T05:15:34;-0.50;99.90
47540;DHT22;33280;52.152;21.052;2023-04-03T05:18:07;-0.50;99.90
47540;DHT22;33280;52.152;21.052;2023-04-03T05:20:49;-0.40;99.90
47540;DHT22;33280;52.152;21.052;2023-04-03T05:23:17;-0.40;99.90
47540;DHT22;33280;52.152;21.052;2023-04-03T05:25:44;-0.40;99.90
47540;DHT22;33280;52.152;21.052;2023-04-03T05:28:15;-0.40;99.90
47540;DHT22;33280;52.152;21.052;2023-04-03T05:30:45;-0.40;99.90
47540;DHT22;33280;52.152;21.052;2023-04-03T05:33:12;-0.40;99.90
47540;DHT22;33280;52.152;21.052;2023-04-03T05:35:41;-0.40;99.90
47540;DHT22;33280;52.152;21.052;2023-04-03T05:38:11;-0.30;99.90
47540;DHT22;33280;52.152;21.052;2023-04-03T05:40:38;-0.30;99.90
47540;DHT22;33280;52.152;21.052;2023-04-03T05:43:26;-0.30;99.90
47540;DHT22;33280;52.152;21.052;2023-04-03T05:45:53;-0.20;99.90
47540;DHT22;33280;52.152;21.052;2023-04-03T05:48:20;-0.20;99.90
47540;DHT22;33280;52.152;21.052;2023-04-03T05:50:47;-0.10;99.90
47540;DHT22;33280;52.152;21.052;2023-04-03T05:53:26;-0.10;99.90
47540;DHT22;33280;52.152;21.052;2023-04-03T05:55:53;0.00;99.90
47540;DHT22;33280;52.152;21.052;2023-04-03T05:58:20;0.10;99.90
47540;DHT22;33280;52.152;21.052;2023-04-03T06:00:47;0.10;99.90
47540;DHT22;33280;52.152;21.052;2023-04-03T06:03:15;0.20;99.90
47540;DHT22;33280;52.152;21.052;2023-04-03T06:05:42;0.20;99.90
47540;DHT22;33280;52.152;21.052;2023-04-03T06:08:09;0.20;99.90
47540;DHT22;33280;52.152;21.052;2023-04-03T06:10:36;0.30;99.90
47540;DHT22;33280;52.152;21.052;2023-04-03T06:13:08;0.40;99.90
47540;DHT22;33280;52.152;21.052;2023-04-03T06:15:35;0.40;99.90
47540;DHT22;33280;52.152;21.052;2023-04-03T06:18:02;0.40;99.90
47540;DHT22;33280;52.152;21.052;2023-04-03T06:23:09;0.60;99.90
47540;DHT22;33280;52.152;21.052;2023-04-03T06:25:37;0.80;99.90
47540;DHT22;33280;52.152;21.052;2023-04-03T06:28:04;0.60;99.90
47540;DHT22;33280;52.152;21.052;2023-04-03T06:30:31;0.70;99.90
47540;DHT22;33280;52.152;21.052;2023-04-03T06:32:58;0.80;99.90
47540;DHT22;33280;52.152;21.052;2023-04-03T06:35:26;0.70;99.90
47540;DHT22;33280;52.152;21.052;2023-04-03T06:37:55;0.80;99.90
47540;DHT22;33280;52.152;21.052;2023-04-03T06:40:24;0.90;99.90
47540;DHT22;33280;52.152;21.052;2023-04-03T06:42:52;0.80;99.90
47540;DHT22;33280;52.152;21.052;2023-04-03T06:45:19;0.90;99.90
47540;DHT22;33280;52.152;21.052;2023-04-03T06:47:47;0.90;99.90
47540;DHT22;33280;52.152;21.052;2023-04-03T06:50:17;0.90;99.90
47540;DHT22;33280;52.152;21.052;2023-04-03T06:52:47;1.00;99.90
47540;DHT22;33280;52.152;21.052;2023-04-03T06:55:14;1.20;99.90
47540;DHT22;33280;52.152;21.052;2023-04-03T06:57:41;1.20;99.90
47540;DHT22;33280;52.152;21.052;2023-04-03T07:00:08;1.10;99.90
47540;DHT22;33280;52.152;21.052;2023-04-03T07:02:36;1.10;99.90
47540;DHT22;33280;52.152;21.052;2023-04-03T07:05:05;1.00;99.90
47540;DHT22;33280;52.152;21.052;2023-04-03T07:07:32;1.00;99.90
47540;DHT22;33280;52.152;21.052;2023-04-03T07:10:01;0.90;99.90
47540;DHT22;33280;52.152;21.052;2023-04-03T07:12:28;1.00;99.90
47540;DHT22;33280;52.152;21.052;2023-04-03T07:14:54;1.10;99.90
47540;DHT22;33280;52.152;21.052;2023-04-03T07:17:22;1.10;99.90
47540;DHT22;33280;52.152;21.052;2023-04-03T07:19:49;1.20;99.90
47540;DHT22;33280;52.152;21.052;2023-04-03T07:22:16;1.20;99.90
47540;DHT22;33280;52.152;21.052;2023-04-03T07:24:47;1.50;99.90
47540;DHT22;33280;52.152;21.052;2023-04-03T07:27:14;1.40;99.90
47540;DHT22;33280;52.152;21.052;2023-04-03T07:29:42;1.50;99.90
47540;DHT22;33280;52.152;21.052;2023-04-03T07:32:15;1.60;99.90
47540;DHT22;33280;52.152;21.052;2023-04-03T07:34:43;1.70;99.90
47540;DHT22;33280;52.152;21.052;2023-04-03T07:37:11;1.80;99.90
47540;DHT22;33280;52.152;21.052;2023-04-03T07:39:38;1.80;99.90
47540;DHT22;33280;52.152;21.052;2023-04-03T07:42:05;1.90;99.90
47540;DHT22;33280;52.152;21.052;2023-04-03T07:44:33;2.00;99.90
47540;DHT22;33280;52.152;21.052;2023-04-03T07:47:00;1.90;99.90
47540;DHT22;33280;52.152;21.052;2023-04-03T07:49:27;2.00;99.90
47540;DHT22;33280;52.152;21.052;2023-04-03T07:51:54;2.00;99.90
47540;DHT22;33280;52.152;21.052;2023-04-03T07:54:21;2.10;99.90
47540;DHT22;33280;52.152;21.052;2023-04-03T07:56:48;2.10;99.90
47540;DHT22;33280;52.152;21.052;2023-04-03T07:59:34;2.20;99.90
47540;DHT22;33280;52.152;21.052;2023-04-03T08:02:01;2.30;99.90
47540;DHT22;33280;52.152;21.052;2023-04-03T08:04:28;2.20;99.90
47540;DHT22;33280;52.152;21.052;2023-04-03T08:06:55;2.30;99.90
47540;DHT22;33280;52.152;21.052;2023-04-03T08:09:22;2.40;99.90
47540;DHT22;33280;52.152;21.052;2023-04-03T08:11:49;2.60;99.90
47540;DHT22;33280;52.152;21.052;2023-04-03T08:14:20;2.70;99.90
47540;DHT22;33280;52.152;21.052;2023-04-03T08:16:48;2.70;99.90
47540;DHT22;33280;52.152;21.052;2023-04-03T08:19:16;2.70;99.90
47540;DHT22;33280;52.152;21.052;2023-04-03T08:21:53;2.80;99.90
47540;DHT22;33280;52.152;21.052;2023-04-03T08:24:31;2.90;99.90
47540;DHT22;33280;52.152;21.052;2023-04-03T08:26:59;2.90;99.90
47540;DHT22;33280;52.152;21.052;2023-04-03T08:29:27;3.10;99.90
47540;DHT22;33280;52.152;21.052;2023-04-03T08:31:54;3.30;99.90
47540;DHT22;33280;52.152;21.052;2023-04-03T08:34:21;3.80;99.90
47540;DHT22;33280;52.152;21.052;2023-04-03T08:40:01;5.00;99.90
47540;DHT22;33280;52.152;21.052;2023-04-03T08:51:04;6.40;99.90
47540;DHT22;33280;52.152;21.052;2023-04-03T08:54:20;6.90;95.90
47540;DHT22;33280;52.152;21.052;2023-04-03T08:57:14;7.30;96.90
47540;DHT22;33280;52.152;21.052;2023-04-03T09:00:23;8.00;96.50
47540;DHT22;33280;52.152;21.052;2023-04-03T09:02:55;8.00;90.50
47540;DHT22;33280;52.152;21.052;2023-04-03T09:08:24;7.40;92.30
47540;DHT22;33280;52.152;21.052;2023-04-03T09:10:59;7.50;87.50
47540;DHT22;33280;52.152;21.052;2023-04-03T09:13:36;8.10;88.40
47540;DHT22;33280;52.152;21.052;2023-04-03T09:22:25;7.90;79.70
47540;DHT22;33280;52.152;21.052;2023-04-03T09:27:44;8.10;79.00
47540;DHT22;33280;52.152;21.052;2023-04-03T09:30:25;8.50;81.40
47540;DHT22;33280;52.152;21.052;2023-04-03T09:32:53;8.90;79.60
47540;DHT22;33280;52.152;21.052;2023-04-03T09:40:46;9.50;74.00
47540;DHT22;33280;52.152;21.052;2023-04-03T09:45:45;9.70;71.50
47540;DHT22;33280;52.152;21.052;2023-04-03T09:48:16;9.90;72.90
47540;DHT22;33280;52.152;21.052;2023-04-03T09:55:55;8.50;71.00
47540;DHT22;33280;52.152;21.052;2023-04-03T09:58:36;8.50;75.20
47540;DHT22;33280;52.152;21.052;2023-04-03T10:01:38;8.50;71.70
47540;DHT22;33280;52.152;21.052;2023-04-03T10:04:17;7.80;71.90
47540;DHT22;33280;52.152;21.052;2023-04-03T10:06:50;7.20;75.70
47540;DHT22;33280;52.152;21.052;2023-04-03T10:12:05;7.60;76.50
47540;DHT22;33280;52.152;21.052;2023-04-03T10:14:37;7.90;77.90
47540;DHT22;33280;52.152;21.052;2023-04-03T10:19:47;9.00;74.20
47540;DHT22;33280;52.152;21.052;2023-04-03T10:25:26;7.80;74.80
47540;DHT22;33280;52.152;21.052;2023-04-03T10:31:25;8.10;76.70
47540;DHT22;33280;52.152;21.052;2023-04-03T10:34:06;8.60;77.50
47540;DHT22;33280;52.152;21.052;2023-04-03T10:36:57;8.90;71.80
47540;DHT22;33280;52.152;21.052;2023-04-03T10:42:35;8.50;70.00
47540;DHT22;33280;52.152;21.052;2023-04-03T10:47:46;8.40;74.40
47540;DHT22;33280;52.152;21.052;2023-04-03T10:50:47;8.40;75.90
47540;DHT22;33280;52.152;21.052;2023-04-03T10:56:50;10.00;68.10
47540;DHT22;33280;52.152;21.052;2023-04-03T10:59:49;10.50;68.00
47540;DHT22;33280;52.152;21.052;2023-04-03T11:02:31;11.10;64.30
47540;DHT22;33280;52.152;21.052;2023-04-03T11:05:31;10.70;63.30
47540;DHT22;33280;52.152;21.052;2023-04-03T11:08:13;10.50;65.70
47540;DHT22;33280;52.152;21.052;2023-04-03T11:10:49;11.50;65.00
47540;DHT22;33280;52.152;21.052;2023-04-03T11:13:21;11.60;62.50
47540;DHT22;33280;52.152;21.052;2023-04-03T11:15:53;11.10;62.20
47540;DHT22;33280;52.152;21.052;2023-04-03T11:18:43;10.30;63.00
47540;DHT22;33280;52.152;21.052;2023-04-03T11:23:57;9.40;67.50
47540;DHT22;33280;52.152;21.052;2023-04-03T11:26:29;9.00;69.90
47540;DHT22;33280;52.152;21.052;2023-04-03T11:29:03;8.80;69.40
47540;DHT22;33280;52.152;21.052;2023-04-03T11:32:03;8.70;67.90
47540;DHT22;33280;52.152;21.052;2023-04-03T11:34:44;8.90;68.60
47540;DHT22;33280;52.152;21.052;2023-04-03T11:37:35;8.70;71.00
47540;DHT22;33280;52.152;21.052;2023-04-03T11:42:49;8.20;71.10
47540;DHT22;33280;52.152;21.052;2023-04-03T11:48:06;9.30;69.70
47540;DHT22;33280;52.152;21.052;2023-04-03T11:50:51;11.30;64.60
47540;DHT22;33280;52.152;21.052;2023-04-03T11:55:58;13.10;55.70
47540;DHT22;33280;52.152;21.052;2023-04-03T11:58:33;13.00;56.40
47540;DHT22;33280;52.152;21.052;2023-04-03T12:01:11;12.80;57.00
47540;DHT22;33280;52.152;21.052;2023-04-03T12:04:10;12.00;56.70
47540;DHT22;33280;52.152;21.052;2023-04-03T12:06:43;11.90;58.20
47540;DHT22;33280;52.152;21.052;2023-04-03T12:09:34;10.80;59.90
47540;DHT22;33280;52.152;21.052;2023-04-03T12:12:32;10.10;61.20
47540;DHT22;33280;52.152;21.052;2023-04-03T12:15:22;10.50;60.20
47540;DHT22;33280;52.152;21.052;2023-04-03T12:17:50;10.20;60.40
47540;DHT22;33280;52.152;21.052;2023-04-03T12:20:53;9.70;62.00
47540;DHT22;33280;52.152;21.052;2023-04-03T12:23:31;9.50;64.40
47540;DHT22;33280;52.152;21.052;2023-04-03T12:26:02;9.10;64.70
47540;DHT22;33280;52.152;21.052;2023-04-03T12:28:39;8.80;65.60
47540;DHT22;33280;52.152;21.052;2023-04-03T12:31:09;8.70;66.30
47540;DHT22;33280;52.152;21.052;2023-04-03T12:34:01;9.10;68.00
47540;DHT22;33280;52.152;21.052;2023-04-03T12:36:47;8.50;66.90
47540;DHT22;33280;52.152;21.052;2023-04-03T12:42:29;8.70;66.20
47540;DHT22;33280;52.152;21.052;2023-04-03T12:45:19;9.90;66.40
47540;DHT22;33280;52.152;21.052;2023-04-03T12:47:53;10.90;64.70
47540;DHT22;33280;52.152;21.052;2023-04-03T12:50:28;10.60;60.40
47540;DHT22;33280;52.152;21.052;2023-04-03T12:53:01;10.00;61.30
47540;DHT22;33280;52.152;21.052;2023-04-03T12:55:30;10.00;62.80
47540;DHT22;33280;52.152;21.052;2023-04-03T12:58:19;10.00;62.10
47540;DHT22;33280;52.152;21.052;2023-04-03T13:01:02;9.70;62.30
47540;DHT22;33280;52.152;21.052;2023-04-03T13:03:30;9.30;61.40
47540;DHT22;33280;52.152;21.052;2023-04-03T13:06:02;8.90;64.20
47540;DHT22;33280;52.152;21.052;2023-04-03T13:08:30;8.80;65.00
47540;DHT22;33280;52.152;21.052;2023-04-03T13:11:10;8.90;65.90
47540;DHT22;33280;52.152;21.052;2023-04-03T13:13:37;9.00;66.80
47540;DHT22;33280;52.152;21.052;2023-04-03T13:16:11;8.70;65.90
47540;DHT22;33280;52.152;21.052;2023-04-03T13:18:42;8.10;64.30
47540;DHT22;33280;52.152;21.052;2023-04-03T13:21:18;7.50;65.70
47540;DHT22;33280;52.152;21.052;2023-04-03T13:23:48;8.00;68.20
47540;DHT22;33280;52.152;21.052;2023-04-03T13:26:26;8.40;64.70
47540;DHT22;33280;52.152;21.052;2023-04-03T13:29:00;8.80;66.90
47540;DHT22;33280;52.152;21.052;2023-04-03T13:31:32;8.90;64.50
47540;DHT22;33280;52.152;21.052;2023-04-03T13:34:10;8.70;65.60
47540;DHT22;33280;52.152;21.052;2023-04-03T13:36:40;8.30;65.90
47540;DHT22;33280;52.152;21.052;2023-04-03T13:41:48;7.70;66.70
47540;DHT22;33280;52.152;21.052;2023-04-03T13:46:53;7.40;70.80
47540;DHT22;33280;52.152;21.052;2023-04-03T13:49:33;7.20;73.20
47540;DHT22;33280;52.152;21.052;2023-04-03T13:52:22;7.00;72.10
47540;DHT22;33280;52.152;21.052;2023-04-03T13:54:54;7.00;73.50
47540;DHT22;33280;52.152;21.052;2023-04-03T13:57:22;6.90;74.80
47540;DHT22;33280;52.152;21.052;2023-04-03T13:59:49;7.20;73.60
47540;DHT22;33280;52.152;21.052;2023-04-03T14:02:29;7.40;73.00
47540;DHT22;33280;52.152;21.052;2023-04-03T14:04:59;7.30;71.80
47540;DHT22;33280;52.152;21.052;2023-04-03T14:07:29;7.10;72.20
47540;DHT22;33280;52.152;21.052;2023-04-03T14:09:58;7.10;72.70
47540;DHT22;33280;52.152;21.052;2023-04-03T14:12:32;7.10;72.30
47540;DHT22;33280;52.152;21.052;2023-04-03T14:15:04;7.00;71.60
47540;DHT22;33280;52.152;21.052;2023-04-03T14:17:32;7.00;74.50
47540;DHT22;33280;52.152;21.052;2023-04-03T14:19:59;6.80;74.00
47540;DHT22;33280;52.152;21.052;2023-04-03T14:22:31;6.60;73.90
47540;DHT22;33280;52.152;21.052;2023-04-03T14:24:59;6.50;76.60
47540;DHT22;33280;52.152;21.052;2023-04-03T14:27:29;6.80;78.30
47540;DHT22;33280;52.152;21.052;2023-04-03T14:29:58;7.00;74.90
47540;DHT22;33280;52.152;21.052;2023-04-03T14:32:27;7.10;75.90
47540;DHT22;33280;52.152;21.052;2023-04-03T14:34:54;7.00;75.40
47540;DHT22;33280;52.152;21.052;2023-04-03T14:37:25;6.90;74.60
47540;DHT22;33280;52.152;21.052;2023-04-03T14:39:55;6.80;74.20
47540;DHT22;33280;52.152;21.052;2023-04-03T14:42:30;6.60;74.90
47540;DHT22;33280;52.152;21.052;2023-04-03T14:45:03;6.30;73.90
47540;DHT22;33280;52.152;21.052;2023-04-03T14:47:32;6.30;75.70
47540;DHT22;33280;52.152;21.052;2023-04-03T14:50:01;6.40;76.00
47540;DHT22;33280;52.152;21.052;2023-04-03T14:52:32;6.30;75.00
47540;DHT22;33280;52.152;21.052;2023-04-03T14:55:00;6.10;75.90
47540;DHT22;33280;52.152;21.052;2023-04-03T14:57:28;5.90;76.90
47540;DHT22;33280;52.152;21.052;2023-04-03T14:59:56;5.90;77.80
47540;DHT22;33280;52.152;21.052;2023-04-03T15:04:57;5.90;82.40
47540;DHT22;33280;52.152;21.052;2023-04-03T15:07:27;5.80;79.40
47540;DHT22;33280;52.152;21.052;2023-04-03T15:09:55;5.70;78.10
47540;DHT22;33280;52.152;21.052;2023-04-03T15:12:24;5.80;78.80
47540;DHT22;33280;52.152;21.052;2023-04-03T15:14:52;5.80;78.90
47540;DHT22;33280;52.152;21.052;2023-04-03T15:17:28;5.80;79.60
47540;DHT22;33280;52.152;21.052;2023-04-03T15:19:55;5.80;78.90
47540;DHT22;33280;52.152;21.052;2023-04-03T15:22:26;5.80;80.50
47540;DHT22;33280;52.152;21.052;2023-04-03T15:24:53;5.80;79.10
47540;DHT22;33280;52.152;21.052;2023-04-03T15:27:20;5.70;79.40
47540;DHT22;33280;52.152;21.052;2023-04-03T15:29:47;5.80;76.30
47540;DHT22;33280;52.152;21.052;2023-04-03T15:32:13;5.70;76.90
47540;DHT22;33280;52.152;21.052;2023-04-03T15:34:40;5.70;76.90
47540;DHT22;33280;52.152;21.052;2023-04-03T15:37:07;5.60;79.50
47540;DHT22;33280;52.152;21.052;2023-04-03T15:39:34;5.60;80.70
47540;DHT22;33280;52.152;21.052;2023-04-03T15:42:01;5.50;82.10
47540;DHT22;33280;52.152;21.052;2023-04-03T15:44:36;5.40;85.50
47540;DHT22;33280;52.152;21.052;2023-04-03T15:47:03;5.40;85.00
47540;DHT22;33280;52.152;21.052;2023-04-03T15:49:33;5.30;86.00
47540;DHT22;33280;52.152;21.052;2023-04-03T15:52:03;5.30;87.80
47540;DHT22;33280;52.152;21.052;2023-04-03T15:54:30;5.30;87.20
47540;DHT22;33280;52.152;21.052;2023-04-03T15:56:57;5.20;81.60
47540;DHT22;33280;52.152;21.052;2023-04-03T15:59:24;5.20;81.20
47540;DHT22;33280;52.152;21.052;2023-04-03T16:01:52;5.20;82.00
47540;DHT22;33280;52.152;21.052;2023-04-03T16:04:20;5.10;82.20
47540;DHT22;33280;52.152;21.052;2023-04-03T16:06:50;5.10;83.50
47540;DHT22;33280;52.152;21.052;2023-04-03T16:09:17;5.10;83.70
47540;DHT22;33280;52.152;21.052;2023-04-03T16:11:44;5.00;83.60
47540;DHT22;33280;52.152;21.052;2023-04-03T16:14:11;5.00;86.80
47540;DHT22;33280;52.152;21.052;2023-04-03T16:16:39;5.00;88.60
47540;DHT22;33280;52.152;21.052;2023-04-03T16:19:09;5.00;87.40
47540;DHT22;33280;52.152;21.052;2023-04-03T16:21:37;4.90;87.20
47540;DHT22;33280;52.152;21.052;2023-04-03T16:24:04;4.90;86.90
47540;DHT22;33280;52.152;21.052;2023-04-03T16:26:32;4.90;86.50
47540;DHT22;33280;52.152;21.052;2023-04-03T16:28:59;4.90;87.70
47540;DHT22;33280;52.152;21.052;2023-04-03T16:31:27;4.90;88.00
47540;DHT22;33280;52.152;21.052;2023-04-03T16:33:55;4.80;88.40
47540;DHT22;33280;52.152;21.052;2023-04-03T16:36:24;4.80;91.50
47540;DHT22;33280;52.152;21.052;2023-04-03T16:38:52;4.80;91.00
47540;DHT22;33280;52.152;21.052;2023-04-03T16:41:18;4.80;90.10
47540;DHT22;33280;52.152;21.052;2023-04-03T16:43:46;4.70;91.00
47540;DHT22;33280;52.152;21.052;2023-04-03T16:46:12;4.60;90.20
47540;DHT22;33280;52.152;21.052;2023-04-03T16:48:42;4.50;91.20
47540;DHT22;33280;52.152;21.052;2023-04-03T16:51:09;4.50;92.00
47540;DHT22;33280;52.152;21.052;2023-04-03T16:53:40;4.50;91.80
47540;DHT22;33280;52.152;21.052;2023-04-03T16:56:07;4.50;91.90
47540;DHT22;33280;52.152;21.052;2023-04-03T16:58:34;4.50;92.30
47540;DHT22;33280;52.152;21.052;2023-04-03T17:01:16;4.40;93.80
47540;DHT22;33280;52.152;21.052;2023-04-03T17:03:44;4.50;93.60
47540;DHT22;33280;52.152;21.052;2023-04-03T17:06:19;4.50;93.40
47540;DHT22;33280;52.152;21.052;2023-04-03T17:08:49;4.40;93.00
47540;DHT22;33280;52.152;21.052;2023-04-03T17:11:17;4.40;93.00
47540;DHT22;33280;52.152;21.052;2023-04-03T17:13:44;4.30;94.00
47540;DHT22;33280;52.152;21.052;2023-04-03T17:16:16;4.40;93.30
47540;DHT22;33280;52.152;21.052;2023-04-03T17:18:47;4.40;93.40